Terminal Aerodrome Forecast
Issued by NWS Raleigh/Durham, NC

Home | Current Version | Previous Version | Text Only | Print | Product List | Glossary On
Versions: 1 2 3 4 5 6 7 8 9 10 11 12 13 14 15 16 17 18 19 20 21 22 23 24
000
FTUS42 KRAH 200847 AAA
TAFRDU
TAF AMD
KRDU 200847Z 2009/2106 03009KT P6SM BKN100
     FM201400 03013G22KT P6SM SCT100 BKN200
     FM201900 03014G22KT P6SM BKN040 BKN200=

USA.gov is the U.S. government's official web portal to all federal, state and local government web resources and services.